sensor_id;sensor_type;location;lat;lon;timestamp;P1;durP1;ratioP1;P2;durP2;ratioP2
45522;SDS011;31254;51.680;5.394;2023-03-12T00:01:08;7.83;;;4.33;;
45522;SDS011;31254;51.680;5.394;2023-03-12T00:03:41;10.27;;;4.27;;
45522;SDS011;31254;51.680;5.394;2023-03-12T00:06:14;9.00;;;3.70;;
45522;SDS011;31254;51.680;5.394;2023-03-12T00:08:41;6.80;;;4.37;;
45522;SDS011;31254;51.680;5.394;2023-03-12T00:11:09;10.43;;;3.90;;
45522;SDS011;31254;51.680;5.394;2023-03-12T00:13:38;13.53;;;4.03;;
45522;SDS011;31254;51.680;5.394;2023-03-12T00:16:12;6.40;;;4.00;;
45522;SDS011;31254;51.680;5.394;2023-03-12T00:18:42;10.27;;;4.20;;
45522;SDS011;31254;51.680;5.394;2023-03-12T00:21:09;13.57;;;3.90;;
45522;SDS011;31254;51.680;5.394;2023-03-12T00:23:36;6.90;;;3.80;;
45522;SDS011;31254;51.680;5.394;2023-03-12T00:26:04;9.80;;;4.23;;
45522;SDS011;31254;51.680;5.394;2023-03-12T00:28:33;7.00;;;3.80;;
45522;SDS011;31254;51.680;5.394;2023-03-12T00:31:00;9.67;;;3.83;;
45522;SDS011;31254;51.680;5.394;2023-03-12T00:33:28;9.40;;;3.80;;
45522;SDS011;31254;51.680;5.394;2023-03-12T00:35:55;10.87;;;4.00;;
45522;SDS011;31254;51.680;5.394;2023-03-12T00:38:27;8.03;;;4.17;;
45522;SDS011;31254;51.680;5.394;2023-03-12T00:40:54;8.33;;;4.20;;
45522;SDS011;31254;51.680;5.394;2023-03-12T00:43:23;7.97;;;3.70;;
45522;SDS011;31254;51.680;5.394;2023-03-12T00:45:52;8.37;;;3.87;;
45522;SDS011;31254;51.680;5.394;2023-03-12T00:48:19;9.13;;;3.40;;
45522;SDS011;31254;51.680;5.394;2023-03-12T00:50:45;10.23;;;3.87;;
45522;SDS011;31254;51.680;5.394;2023-03-12T00:53:12;8.90;;;3.57;;
45522;SDS011;31254;51.680;5.394;2023-03-12T00:55:39;9.03;;;3.60;;
45522;SDS011;31254;51.680;5.394;2023-03-12T00:58:05;8.43;;;3.97;;
45522;SDS011;31254;51.680;5.394;2023-03-12T01:00:34;8.17;;;3.57;;
45522;SDS011;31254;51.680;5.394;2023-03-12T01:03:03;9.83;;;4.20;;
45522;SDS011;31254;51.680;5.394;2023-03-12T01:05:30;15.03;;;3.60;;
45522;SDS011;31254;51.680;5.394;2023-03-12T01:08:03;7.17;;;3.77;;
45522;SDS011;31254;51.680;5.394;2023-03-12T01:10:30;6.03;;;3.50;;
45522;SDS011;31254;51.680;5.394;2023-03-12T01:12:57;7.63;;;3.57;;
45522;SDS011;31254;51.680;5.394;2023-03-12T01:15:26;8.40;;;3.40;;
45522;SDS011;31254;51.680;5.394;2023-03-12T01:17:53;7.73;;;3.97;;
45522;SDS011;31254;51.680;5.394;2023-03-12T01:20:20;5.07;;;3.53;;
45522;SDS011;31254;51.680;5.394;2023-03-12T01:22:51;7.23;;;3.60;;
45522;SDS011;31254;51.680;5.394;2023-03-12T01:25:19;9.97;;;4.53;;
45522;SDS011;31254;51.680;5.394;2023-03-12T01:27:46;9.37;;;3.40;;
45522;SDS011;31254;51.680;5.394;2023-03-12T01:30:13;10.10;;;3.67;;
45522;SDS011;31254;51.680;5.394;2023-03-12T01:32:42;10.83;;;3.97;;
45522;SDS011;31254;51.680;5.394;2023-03-12T01:35:09;6.10;;;3.50;;
45522;SDS011;31254;51.680;5.394;2023-03-12T01:37:38;14.27;;;4.00;;
45522;SDS011;31254;51.680;5.394;2023-03-12T01:40:04;7.93;;;3.77;;
45522;SDS011;31254;51.680;5.394;2023-03-12T01:42:31;6.60;;;3.73;;
45522;SDS011;31254;51.680;5.394;2023-03-12T01:44:59;9.50;;;3.70;;
45522;SDS011;31254;51.680;5.394;2023-03-12T01:47:27;8.10;;;4.03;;
45522;SDS011;31254;51.680;5.394;2023-03-12T01:49:57;5.80;;;3.53;;
45522;SDS011;31254;51.680;5.394;2023-03-12T01:52:26;13.60;;;3.63;;
45522;SDS011;31254;51.680;5.394;2023-03-12T01:55:00;7.80;;;4.07;;
45522;SDS011;31254;51.680;5.394;2023-03-12T01:59:59;6.73;;;3.50;;
45522;SDS011;31254;51.680;5.394;2023-03-12T02:02:39;8.40;;;3.87;;
45522;SDS011;31254;51.680;5.394;2023-03-12T02:07:45;10.93;;;4.10;;
45522;SDS011;31254;51.680;5.394;2023-03-12T02:10:12;11.23;;;3.87;;
45522;SDS011;31254;51.680;5.394;2023-03-12T02:12:39;7.10;;;3.43;;
45522;SDS011;31254;51.680;5.394;2023-03-12T02:15:06;8.83;;;3.60;;
45522;SDS011;31254;51.680;5.394;2023-03-12T02:17:34;7.73;;;3.53;;
45522;SDS011;31254;51.680;5.394;2023-03-12T02:22:46;7.60;;;3.60;;
45522;SDS011;31254;51.680;5.394;2023-03-12T02:25:34;12.10;;;3.97;;
45522;SDS011;31254;51.680;5.394;2023-03-12T02:28:04;7.63;;;4.00;;
45522;SDS011;31254;51.680;5.394;2023-03-12T02:30:34;5.47;;;3.50;;
45522;SDS011;31254;51.680;5.394;2023-03-12T02:33:04;7.97;;;3.90;;
45522;SDS011;31254;51.680;5.394;2023-03-12T02:35:32;8.10;;;3.33;;
45522;SDS011;31254;51.680;5.394;2023-03-12T02:38:02;7.80;;;3.57;;
45522;SDS011;31254;51.680;5.394;2023-03-12T02:40:40;9.50;;;3.83;;
45522;SDS011;31254;51.680;5.394;2023-03-12T02:43:19;6.97;;;3.43;;
45522;SDS011;31254;51.680;5.394;2023-03-12T02:45:50;9.93;;;3.67;;
45522;SDS011;31254;51.680;5.394;2023-03-12T02:48:19;9.77;;;4.23;;
45522;SDS011;31254;51.680;5.394;2023-03-12T02:50:51;6.03;;;3.53;;
45522;SDS011;31254;51.680;5.394;2023-03-12T02:53:18;7.10;;;3.27;;
45522;SDS011;31254;51.680;5.394;2023-03-12T02:55:44;9.87;;;3.77;;
45522;SDS011;31254;51.680;5.394;2023-03-12T02:58:11;6.17;;;3.33;;
45522;SDS011;31254;51.680;5.394;2023-03-12T03:00:38;7.47;;;3.40;;
45522;SDS011;31254;51.680;5.394;2023-03-12T03:03:04;8.37;;;4.10;;
45522;SDS011;31254;51.680;5.394;2023-03-12T03:05:31;7.60;;;3.73;;
45522;SDS011;31254;51.680;5.394;2023-03-12T03:07:57;7.63;;;3.80;;
45522;SDS011;31254;51.680;5.394;2023-03-12T03:10:29;9.03;;;3.90;;
45522;SDS011;31254;51.680;5.394;2023-03-12T03:12:56;11.40;;;4.30;;
45522;SDS011;31254;51.680;5.394;2023-03-12T03:15:24;6.10;;;4.20;;
45522;SDS011;31254;51.680;5.394;2023-03-12T03:17:53;10.87;;;4.07;;
45522;SDS011;31254;51.680;5.394;2023-03-12T03:20:20;8.93;;;4.17;;
45522;SDS011;31254;51.680;5.394;2023-03-12T03:22:47;8.70;;;4.03;;
45522;SDS011;31254;51.680;5.394;2023-03-12T03:25:14;10.50;;;4.40;;
45522;SDS011;31254;51.680;5.394;2023-03-12T03:27:41;10.20;;;4.40;;
45522;SDS011;31254;51.680;5.394;2023-03-12T03:30:08;8.13;;;3.97;;
45522;SDS011;31254;51.680;5.394;2023-03-12T03:32:38;9.50;;;4.70;;
45522;SDS011;31254;51.680;5.394;2023-03-12T03:35:05;8.47;;;4.40;;
45522;SDS011;31254;51.680;5.394;2023-03-12T03:37:31;7.53;;;4.10;;
45522;SDS011;31254;51.680;5.394;2023-03-12T03:39:58;9.63;;;4.20;;
45522;SDS011;31254;51.680;5.394;2023-03-12T03:42:25;10.00;;;4.63;;
45522;SDS011;31254;51.680;5.394;2023-03-12T03:44:52;10.67;;;4.17;;
45522;SDS011;31254;51.680;5.394;2023-03-12T03:47:18;8.80;;;4.77;;
45522;SDS011;31254;51.680;5.394;2023-03-12T03:49:45;11.43;;;4.80;;
45522;SDS011;31254;51.680;5.394;2023-03-12T03:52:14;8.00;;;3.90;;
45522;SDS011;31254;51.680;5.394;2023-03-12T03:54:43;9.90;;;4.57;;
45522;SDS011;31254;51.680;5.394;2023-03-12T03:57:12;8.27;;;4.20;;
45522;SDS011;31254;51.680;5.394;2023-03-12T03:59:41;9.53;;;3.83;;
45522;SDS011;31254;51.680;5.394;2023-03-12T04:02:08;9.70;;;3.87;;
45522;SDS011;31254;51.680;5.394;2023-03-12T04:04:34;10.67;;;4.10;;
45522;SDS011;31254;51.680;5.394;2023-03-12T04:07:01;7.27;;;3.37;;
45522;SDS011;31254;51.680;5.394;2023-03-12T04:09:28;7.47;;;3.57;;
45522;SDS011;31254;51.680;5.394;2023-03-12T04:11:55;10.63;;;3.77;;
45522;SDS011;31254;51.680;5.394;2023-03-12T04:14:24;7.87;;;3.50;;
45522;SDS011;31254;51.680;5.394;2023-03-12T04:16:51;6.70;;;3.50;;
45522;SDS011;31254;51.680;5.394;2023-03-12T04:19:17;8.90;;;3.50;;
45522;SDS011;31254;51.680;5.394;2023-03-12T04:21:44;8.37;;;3.10;;
45522;SDS011;31254;51.680;5.394;2023-03-12T04:24:14;9.40;;;3.17;;
45522;SDS011;31254;51.680;5.394;2023-03-12T04:26:42;7.80;;;3.20;;
45522;SDS011;31254;51.680;5.394;2023-03-12T04:29:08;8.00;;;3.17;;
45522;SDS011;31254;51.680;5.394;2023-03-12T04:31:35;10.97;;;3.30;;
45522;SDS011;31254;51.680;5.394;2023-03-12T04:34:04;7.57;;;3.60;;
45522;SDS011;31254;51.680;5.394;2023-03-12T04:36:30;7.23;;;3.30;;
45522;SDS011;31254;51.680;5.394;2023-03-12T04:38:57;7.23;;;3.30;;
45522;SDS011;31254;51.680;5.394;2023-03-12T04:41:24;8.87;;;3.60;;
45522;SDS011;31254;51.680;5.394;2023-03-12T04:43:55;8.80;;;3.53;;
45522;SDS011;31254;51.680;5.394;2023-03-12T04:46:25;6.53;;;3.73;;
45522;SDS011;31254;51.680;5.394;2023-03-12T04:48:52;10.20;;;4.13;;
45522;SDS011;31254;51.680;5.394;2023-03-12T04:51:18;11.53;;;3.70;;
45522;SDS011;31254;51.680;5.394;2023-03-12T04:53:45;9.00;;;3.53;;
45522;SDS011;31254;51.680;5.394;2023-03-12T04:56:12;8.80;;;3.87;;
45522;SDS011;31254;51.680;5.394;2023-03-12T04:58:43;6.90;;;3.80;;
45522;SDS011;31254;51.680;5.394;2023-03-12T05:01:18;9.23;;;3.70;;
45522;SDS011;31254;51.680;5.394;2023-03-12T05:03:49;6.57;;;3.57;;
45522;SDS011;31254;51.680;5.394;2023-03-12T05:06:16;5.90;;;3.97;;
45522;SDS011;31254;51.680;5.394;2023-03-12T05:08:46;8.50;;;4.10;;
45522;SDS011;31254;51.680;5.394;2023-03-12T05:11:13;9.83;;;3.87;;
45522;SDS011;31254;51.680;5.394;2023-03-12T05:13:40;7.03;;;4.00;;
45522;SDS011;31254;51.680;5.394;2023-03-12T05:16:08;10.17;;;4.10;;
45522;SDS011;31254;51.680;5.394;2023-03-12T05:18:35;9.80;;;4.00;;
45522;SDS011;31254;51.680;5.394;2023-03-12T05:21:07;9.17;;;3.73;;
45522;SDS011;31254;51.680;5.394;2023-03-12T05:23:37;15.07;;;4.10;;
45522;SDS011;31254;51.680;5.394;2023-03-12T05:26:04;8.00;;;3.87;;
45522;SDS011;31254;51.680;5.394;2023-03-12T05:28:34;12.00;;;3.70;;
45522;SDS011;31254;51.680;5.394;2023-03-12T05:31:06;10.50;;;3.87;;
45522;SDS011;31254;51.680;5.394;2023-03-12T05:33:35;10.83;;;3.97;;
45522;SDS011;31254;51.680;5.394;2023-03-12T05:36:02;13.40;;;4.10;;
45522;SDS011;31254;51.680;5.394;2023-03-12T05:38:29;11.27;;;3.50;;
45522;SDS011;31254;51.680;5.394;2023-03-12T05:40:56;9.57;;;3.97;;
45522;SDS011;31254;51.680;5.394;2023-03-12T05:43:25;8.37;;;3.60;;
45522;SDS011;31254;51.680;5.394;2023-03-12T05:46:04;7.90;;;3.87;;
45522;SDS011;31254;51.680;5.394;2023-03-12T05:48:30;8.50;;;3.90;;
45522;SDS011;31254;51.680;5.394;2023-03-12T05:50:57;9.10;;;3.67;;
45522;SDS011;31254;51.680;5.394;2023-03-12T05:53:26;7.37;;;3.60;;
45522;SDS011;31254;51.680;5.394;2023-03-12T05:55:53;8.47;;;3.87;;
45522;SDS011;31254;51.680;5.394;2023-03-12T05:58:22;9.80;;;4.10;;
45522;SDS011;31254;51.680;5.394;2023-03-12T06:00:51;12.10;;;4.40;;
45522;SDS011;31254;51.680;5.394;2023-03-12T06:03:18;10.90;;;3.87;;
45522;SDS011;31254;51.680;5.394;2023-03-12T06:05:44;8.23;;;3.53;;
45522;SDS011;31254;51.680;5.394;2023-03-12T06:08:13;12.63;;;4.03;;
45522;SDS011;31254;51.680;5.394;2023-03-12T06:10:40;14.43;;;4.00;;
45522;SDS011;31254;51.680;5.394;2023-03-12T06:13:09;6.80;;;3.57;;
45522;SDS011;31254;51.680;5.394;2023-03-12T06:15:39;10.20;;;3.60;;
45522;SDS011;31254;51.680;5.394;2023-03-12T06:18:05;11.93;;;4.37;;
45522;SDS011;31254;51.680;5.394;2023-03-12T06:20:32;11.90;;;4.40;;
45522;SDS011;31254;51.680;5.394;2023-03-12T06:22:59;9.30;;;4.10;;
45522;SDS011;31254;51.680;5.394;2023-03-12T06:25:28;14.67;;;4.30;;
45522;SDS011;31254;51.680;5.394;2023-03-12T06:27:55;12.47;;;4.47;;
45522;SDS011;31254;51.680;5.394;2023-03-12T06:30:21;7.20;;;3.43;;
45522;SDS011;31254;51.680;5.394;2023-03-12T06:32:48;10.93;;;4.57;;
45522;SDS011;31254;51.680;5.394;2023-03-12T06:35:15;7.23;;;3.63;;
45522;SDS011;31254;51.680;5.394;2023-03-12T06:37:42;7.60;;;4.17;;
45522;SDS011;31254;51.680;5.394;2023-03-12T06:40:11;12.23;;;4.37;;
45522;SDS011;31254;51.680;5.394;2023-03-12T06:42:38;9.30;;;4.17;;
45522;SDS011;31254;51.680;5.394;2023-03-12T06:45:05;9.50;;;4.13;;
45522;SDS011;31254;51.680;5.394;2023-03-12T06:47:32;9.63;;;4.00;;
45522;SDS011;31254;51.680;5.394;2023-03-12T06:49:58;10.67;;;4.30;;
45522;SDS011;31254;51.680;5.394;2023-03-12T06:52:26;10.07;;;4.20;;
45522;SDS011;31254;51.680;5.394;2023-03-12T06:54:52;10.17;;;4.50;;
45522;SDS011;31254;51.680;5.394;2023-03-12T06:57:22;8.57;;;4.40;;
45522;SDS011;31254;51.680;5.394;2023-03-12T06:59:48;8.53;;;4.33;;
45522;SDS011;31254;51.680;5.394;2023-03-12T07:02:16;12.20;;;4.50;;
45522;SDS011;31254;51.680;5.394;2023-03-12T07:04:43;9.40;;;4.17;;
45522;SDS011;31254;51.680;5.394;2023-03-12T07:07:12;11.03;;;5.17;;
45522;SDS011;31254;51.680;5.394;2023-03-12T07:09:40;12.53;;;5.20;;
45522;SDS011;31254;51.680;5.394;2023-03-12T07:12:10;11.10;;;4.43;;
45522;SDS011;31254;51.680;5.394;2023-03-12T07:14:38;8.83;;;4.70;;
45522;SDS011;31254;51.680;5.394;2023-03-12T07:17:10;11.87;;;4.93;;
45522;SDS011;31254;51.680;5.394;2023-03-12T07:19:39;8.83;;;4.33;;
45522;SDS011;31254;51.680;5.394;2023-03-12T07:22:06;10.97;;;5.10;;
45522;SDS011;31254;51.680;5.394;2023-03-12T07:24:34;8.83;;;4.87;;
45522;SDS011;31254;51.680;5.394;2023-03-12T07:27:01;10.47;;;5.10;;
45522;SDS011;31254;51.680;5.394;2023-03-12T07:29:29;13.90;;;5.10;;
45522;SDS011;31254;51.680;5.394;2023-03-12T07:31:58;11.93;;;5.50;;
45522;SDS011;31254;51.680;5.394;2023-03-12T07:34:26;9.53;;;5.30;;
45522;SDS011;31254;51.680;5.394;2023-03-12T07:36:57;9.70;;;5.10;;
45522;SDS011;31254;51.680;5.394;2023-03-12T07:39:26;9.83;;;5.97;;
45522;SDS011;31254;51.680;5.394;2023-03-12T07:41:54;9.20;;;5.23;;
45522;SDS011;31254;51.680;5.394;2023-03-12T07:44:23;9.77;;;4.90;;
45522;SDS011;31254;51.680;5.394;2023-03-12T07:46:58;10.30;;;5.03;;
45522;SDS011;31254;51.680;5.394;2023-03-12T07:49:47;9.00;;;5.27;;
45522;SDS011;31254;51.680;5.394;2023-03-12T07:52:20;10.40;;;5.57;;
45522;SDS011;31254;51.680;5.394;2023-03-12T07:54:54;8.10;;;4.90;;
45522;SDS011;31254;51.680;5.394;2023-03-12T07:57:22;11.03;;;5.40;;
45522;SDS011;31254;51.680;5.394;2023-03-12T07:59:50;10.57;;;5.80;;
45522;SDS011;31254;51.680;5.394;2023-03-12T08:02:18;11.33;;;5.37;;
45522;SDS011;31254;51.680;5.394;2023-03-12T08:04:46;11.27;;;5.50;;
45522;SDS011;31254;51.680;5.394;2023-03-12T08:07:14;11.93;;;5.63;;
45522;SDS011;31254;51.680;5.394;2023-03-12T08:09:42;8.70;;;5.17;;
45522;SDS011;31254;51.680;5.394;2023-03-12T08:12:19;12.33;;;5.83;;
45522;SDS011;31254;51.680;5.394;2023-03-12T08:14:51;11.20;;;5.17;;
45522;SDS011;31254;51.680;5.394;2023-03-12T08:17:20;10.50;;;4.87;;
45522;SDS011;31254;51.680;5.394;2023-03-12T08:19:47;8.17;;;4.97;;
45522;SDS011;31254;51.680;5.394;2023-03-12T08:22:14;11.03;;;5.47;;
45522;SDS011;31254;51.680;5.394;2023-03-12T08:24:42;12.83;;;6.23;;
45522;SDS011;31254;51.680;5.394;2023-03-12T08:27:09;8.10;;;5.23;;
45522;SDS011;31254;51.680;5.394;2023-03-12T08:29:38;7.83;;;5.40;;
45522;SDS011;31254;51.680;5.394;2023-03-12T08:32:05;9.93;;;5.53;;
45522;SDS011;31254;51.680;5.394;2023-03-12T08:34:50;11.37;;;4.93;;
45522;SDS011;31254;51.680;5.394;2023-03-12T08:37:20;13.87;;;6.23;;
45522;SDS011;31254;51.680;5.394;2023-03-12T08:39:49;10.40;;;5.80;;
45522;SDS011;31254;51.680;5.394;2023-03-12T08:42:16;10.23;;;6.07;;
45522;SDS011;31254;51.680;5.394;2023-03-12T08:44:44;12.95;;;6.15;;
45522;SDS011;31254;51.680;5.394;2023-03-12T08:47:16;9.27;;;5.73;;
45522;SDS011;31254;51.680;5.394;2023-03-12T08:49:53;11.13;;;6.43;;
45522;SDS011;31254;51.680;5.394;2023-03-12T08:52:24;15.95;;;6.65;;
45522;SDS011;31254;51.680;5.394;2023-03-12T08:54:52;10.07;;;6.53;;
45522;SDS011;31254;51.680;5.394;2023-03-12T08:57:19;8.65;;;5.90;;
45522;SDS011;31254;51.680;5.394;2023-03-12T08:59:49;12.73;;;6.83;;
45522;SDS011;31254;51.680;5.394;2023-03-12T09:02:15;14.40;;;6.65;;
45522;SDS011;31254;51.680;5.394;2023-03-12T09:04:42;13.13;;;7.30;;
45522;SDS011;31254;51.680;5.394;2023-03-12T09:07:13;14.07;;;7.68;;
45522;SDS011;31254;51.680;5.394;2023-03-12T09:09:43;15.55;;;8.43;;
45522;SDS011;31254;51.680;5.394;2023-03-12T09:12:10;13.00;;;8.38;;
45522;SDS011;31254;51.680;5.394;2023-03-12T09:14:39;19.80;;;9.63;;
45522;SDS011;31254;51.680;5.394;2023-03-12T09:17:27;15.38;;;10.45;;
45522;SDS011;31254;51.680;5.394;2023-03-12T09:19:55;17.05;;;9.77;;
45522;SDS011;31254;51.680;5.394;2023-03-12T09:22:22;17.33;;;10.75;;
45522;SDS011;31254;51.680;5.394;2023-03-12T09:24:48;21.27;;;11.48;;
45522;SDS011;31254;51.680;5.394;2023-03-12T09:27:15;24.08;;;12.25;;
45522;SDS011;31254;51.680;5.394;2023-03-12T09:29:42;27.73;;;12.75;;
45522;SDS011;31254;51.680;5.394;2023-03-12T09:32:24;20.88;;;12.25;;
45522;SDS011;31254;51.680;5.394;2023-03-12T09:34:53;20.02;;;12.80;;
45522;SDS011;31254;51.680;5.394;2023-03-12T09:37:20;21.13;;;13.23;;
45522;SDS011;31254;51.680;5.394;2023-03-12T09:39:50;27.90;;;13.77;;
45522;SDS011;31254;51.680;5.394;2023-03-12T09:42:22;21.50;;;12.73;;
45522;SDS011;31254;51.680;5.394;2023-03-12T09:44:51;19.27;;;12.15;;
45522;SDS011;31254;51.680;5.394;2023-03-12T09:49:53;22.95;;;14.50;;
45522;SDS011;31254;51.680;5.394;2023-03-12T09:52:27;23.65;;;14.63;;
45522;SDS011;31254;51.680;5.394;2023-03-12T09:55:12;26.08;;;13.98;;
45522;SDS011;31254;51.680;5.394;2023-03-12T09:57:42;27.02;;;14.07;;
45522;SDS011;31254;51.680;5.394;2023-03-12T10:00:10;25.42;;;14.73;;
45522;SDS011;31254;51.680;5.394;2023-03-12T10:08:28;26.90;;;15.77;;
45522;SDS011;31254;51.680;5.394;2023-03-12T10:17:27;24.85;;;14.45;;
45522;SDS011;31254;51.680;5.394;2023-03-12T10:28:56;22.48;;;13.88;;
45522;SDS011;31254;51.680;5.394;2023-03-12T10:33:56;22.02;;;14.25;;
45522;SDS011;31254;51.680;5.394;2023-03-12T10:36:27;22.50;;;13.75;;
45522;SDS011;31254;51.680;5.394;2023-03-12T10:39:01;30.25;;;13.80;;
45522;SDS011;31254;51.680;5.394;2023-03-12T10:41:29;29.70;;;13.30;;
45522;SDS011;31254;51.680;5.394;2023-03-12T10:44:01;24.90;;;12.43;;
45522;SDS011;31254;51.680;5.394;2023-03-12T10:52:32;24.80;;;12.55;;
45522;SDS011;31254;51.680;5.394;2023-03-12T10:54:46;24.73;;;12.23;;
45522;SDS011;31254;51.680;5.394;2023-03-12T10:57:14;24.88;;;10.55;;
45522;SDS011;31254;51.680;5.394;2023-03-12T10:59:42;24.23;;;10.73;;
45522;SDS011;31254;51.680;5.394;2023-03-12T11:04:53;20.23;;;9.98;;
45522;SDS011;31254;51.680;5.394;2023-03-12T11:07:21;18.00;;;8.93;;
45522;SDS011;31254;51.680;5.394;2023-03-12T11:12:39;21.40;;;8.60;;
45522;SDS011;31254;51.680;5.394;2023-03-12T11:15:20;20.80;;;8.57;;
45522;SDS011;31254;51.680;5.394;2023-03-12T11:17:49;18.08;;;8.25;;
45522;SDS011;31254;51.680;5.394;2023-03-12T11:20:36;18.05;;;7.72;;
45522;SDS011;31254;51.680;5.394;2023-03-12T11:23:16;20.75;;;8.13;;
45522;SDS011;31254;51.680;5.394;2023-03-12T11:25:56;27.30;;;9.55;;
45522;SDS011;31254;51.680;5.394;2023-03-12T11:28:27;18.02;;;7.63;;
45522;SDS011;31254;51.680;5.394;2023-03-12T11:31:01;23.17;;;8.38;;
45522;SDS011;31254;51.680;5.394;2023-03-12T11:33:30;25.63;;;8.93;;
45522;SDS011;31254;51.680;5.394;2023-03-12T11:36:01;27.55;;;8.07;;
45522;SDS011;31254;51.680;5.394;2023-03-12T11:38:39;30.50;;;9.02;;
45522;SDS011;31254;51.680;5.394;2023-03-12T11:49:39;31.38;;;8.00;;
45522;SDS011;31254;51.680;5.394;2023-03-12T11:52:11;26.48;;;7.90;;
45522;SDS011;31254;51.680;5.394;2023-03-12T12:00:31;30.00;;;7.28;;
45522;SDS011;31254;51.680;5.394;2023-03-12T12:03:25;22.40;;;6.65;;
45522;SDS011;31254;51.680;5.394;2023-03-12T12:20:15;21.60;;;5.13;;
45522;SDS011;31254;51.680;5.394;2023-03-12T12:22:58;22.70;;;5.18;;
45522;SDS011;31254;51.680;5.394;2023-03-12T12:26:16;23.35;;;4.82;;
45522;SDS011;31254;51.680;5.394;2023-03-12T12:28:27;28.80;;;5.78;;
45522;SDS011;31254;51.680;5.394;2023-03-12T12:36:21;21.38;;;4.55;;
45522;SDS011;31254;51.680;5.394;2023-03-12T12:38:54;21.02;;;4.07;;
45522;SDS011;31254;51.680;5.394;2023-03-12T12:41:33;25.05;;;4.63;;
45522;SDS011;31254;51.680;5.394;2023-03-12T12:44:04;22.83;;;4.82;;
45522;SDS011;31254;51.680;5.394;2023-03-12T12:46:38;24.50;;;4.82;;
45522;SDS011;31254;51.680;5.394;2023-03-12T12:49:18;21.85;;;4.88;;
45522;SDS011;31254;51.680;5.394;2023-03-12T12:52:24;18.73;;;4.00;;
45522;SDS011;31254;51.680;5.394;2023-03-12T12:57:37;24.20;;;5.95;;
45522;SDS011;31254;51.680;5.394;2023-03-12T13:02:52;25.75;;;5.18;;
45522;SDS011;31254;51.680;5.394;2023-03-12T13:07:53;23.13;;;5.38;;
45522;SDS011;31254;51.680;5.394;2023-03-12T13:15:43;25.92;;;5.65;;
45522;SDS011;31254;51.680;5.394;2023-03-12T13:18:23;26.33;;;5.18;;
45522;SDS011;31254;51.680;5.394;2023-03-12T13:21:10;24.02;;;5.32;;
45522;SDS011;31254;51.680;5.394;2023-03-12T13:29:41;25.08;;;6.15;;
45522;SDS011;31254;51.680;5.394;2023-03-12T13:35:18;25.60;;;4.20;;
45522;SDS011;31254;51.680;5.394;2023-03-12T13:37:58;25.55;;;3.95;;
45522;SDS011;31254;51.680;5.394;2023-03-12T13:48:44;24.58;;;3.65;;
45522;SDS011;31254;51.680;5.394;2023-03-12T13:51:17;19.05;;;3.50;;
45522;SDS011;31254;51.680;5.394;2023-03-12T13:53:51;18.65;;;3.38;;
45522;SDS011;31254;51.680;5.394;2023-03-12T13:56:24;16.38;;;2.67;;
45522;SDS011;31254;51.680;5.394;2023-03-12T14:01:40;28.95;;;3.35;;
45522;SDS011;31254;51.680;5.394;2023-03-12T14:04:16;17.58;;;3.33;;
45522;SDS011;31254;51.680;5.394;2023-03-12T14:06:52;23.80;;;3.28;;
45522;SDS011;31254;51.680;5.394;2023-03-12T14:12:28;21.63;;;3.47;;
45522;SDS011;31254;51.680;5.394;2023-03-12T14:15:23;16.42;;;3.15;;
45522;SDS011;31254;51.680;5.394;2023-03-12T14:18:00;22.67;;;3.30;;
45522;SDS011;31254;51.680;5.394;2023-03-12T14:20:36;18.42;;;3.30;;
45522;SDS011;31254;51.680;5.394;2023-03-12T14:23:05;20.63;;;3.38;;
45522;SDS011;31254;51.680;5.394;2023-03-12T14:25:38;18.73;;;3.03;;
45522;SDS011;31254;51.680;5.394;2023-03-12T14:28:41;23.98;;;3.92;;
45522;SDS011;31254;51.680;5.394;2023-03-12T14:39:30;21.05;;;3.63;;
45522;SDS011;31254;51.680;5.394;2023-03-12T14:42:07;30.52;;;4.90;;
45522;SDS011;31254;51.680;5.394;2023-03-12T14:44:35;29.95;;;5.85;;
45522;SDS011;31254;51.680;5.394;2023-03-12T14:47:12;30.55;;;4.97;;
45522;SDS011;31254;51.680;5.394;2023-03-12T14:49:43;24.42;;;4.50;;
45522;SDS011;31254;51.680;5.394;2023-03-12T14:52:12;24.23;;;3.85;;
45522;SDS011;31254;51.680;5.394;2023-03-12T14:54:54;26.15;;;4.03;;
45522;SDS011;31254;51.680;5.394;2023-03-12T14:57:37;22.27;;;3.53;;
45522;SDS011;31254;51.680;5.394;2023-03-12T15:00:06;23.10;;;3.60;;
45522;SDS011;31254;51.680;5.394;2023-03-12T15:02:41;25.63;;;4.53;;
45522;SDS011;31254;51.680;5.394;2023-03-12T15:05:17;28.40;;;4.18;;
45522;SDS011;31254;51.680;5.394;2023-03-12T15:07:47;24.25;;;3.97;;
45522;SDS011;31254;51.680;5.394;2023-03-12T15:10:24;23.42;;;4.00;;
45522;SDS011;31254;51.680;5.394;2023-03-12T15:12:53;24.40;;;3.88;;
45522;SDS011;31254;51.680;5.394;2023-03-12T15:15:38;25.65;;;4.25;;
45522;SDS011;31254;51.680;5.394;2023-03-12T15:18:12;24.27;;;4.18;;
45522;SDS011;31254;51.680;5.394;2023-03-12T15:20:46;25.35;;;4.15;;
45522;SDS011;31254;51.680;5.394;2023-03-12T15:23:16;24.10;;;4.18;;
45522;SDS011;31254;51.680;5.394;2023-03-12T15:25:44;26.20;;;4.07;;
45522;SDS011;31254;51.680;5.394;2023-03-12T15:30:39;31.25;;;4.57;;
45522;SDS011;31254;51.680;5.394;2023-03-12T15:33:09;26.95;;;4.00;;
45522;SDS011;31254;51.680;5.394;2023-03-12T15:35:58;25.23;;;3.90;;
45522;SDS011;31254;51.680;5.394;2023-03-12T15:38:46;24.00;;;3.92;;
45522;SDS011;31254;51.680;5.394;2023-03-12T15:41:22;23.20;;;4.15;;
45522;SDS011;31254;51.680;5.394;2023-03-12T15:43:55;20.77;;;3.42;;
45522;SDS011;31254;51.680;5.394;2023-03-12T15:46:23;23.92;;;3.65;;
45522;SDS011;31254;51.680;5.394;2023-03-12T15:48:52;28.13;;;4.13;;
45522;SDS011;31254;51.680;5.394;2023-03-12T15:51:25;30.65;;;3.97;;
45522;SDS011;31254;51.680;5.394;2023-03-12T15:54:26;19.30;;;3.67;;
45522;SDS011;31254;51.680;5.394;2023-03-12T15:56:45;26.02;;;4.43;;
45522;SDS011;31254;51.680;5.394;2023-03-12T16:01:46;24.15;;;3.78;;
45522;SDS011;31254;51.680;5.394;2023-03-12T16:04:19;25.55;;;4.47;;
45522;SDS011;31254;51.680;5.394;2023-03-12T16:06:49;33.28;;;4.22;;
45522;SDS011;31254;51.680;5.394;2023-03-12T16:09:17;21.20;;;4.25;;
45522;SDS011;31254;51.680;5.394;2023-03-12T16:11:47;26.15;;;4.47;;
45522;SDS011;31254;51.680;5.394;2023-03-12T16:14:18;21.15;;;3.83;;
45522;SDS011;31254;51.680;5.394;2023-03-12T16:16:48;23.30;;;4.47;;
45522;SDS011;31254;51.680;5.394;2023-03-12T16:19:17;28.88;;;4.93;;
45522;SDS011;31254;51.680;5.394;2023-03-12T16:21:46;21.95;;;4.13;;
45522;SDS011;31254;51.680;5.394;2023-03-12T16:24:15;27.23;;;4.68;;
45522;SDS011;31254;51.680;5.394;2023-03-12T16:26:47;24.02;;;4.63;;
45522;SDS011;31254;51.680;5.394;2023-03-12T16:29:16;27.27;;;4.63;;
45522;SDS011;31254;51.680;5.394;2023-03-12T16:31:53;33.47;;;4.80;;
45522;SDS011;31254;51.680;5.394;2023-03-12T16:34:22;30.70;;;3.90;;
45522;SDS011;31254;51.680;5.394;2023-03-12T16:36:49;30.63;;;4.28;;
45522;SDS011;31254;51.680;5.394;2023-03-12T16:39:18;20.98;;;4.00;;
45522;SDS011;31254;51.680;5.394;2023-03-12T16:41:45;25.17;;;4.35;;
45522;SDS011;31254;51.680;5.394;2023-03-12T16:44:16;28.85;;;4.53;;
45522;SDS011;31254;51.680;5.394;2023-03-12T16:46:46;29.17;;;4.63;;
45522;SDS011;31254;51.680;5.394;2023-03-12T16:49:14;27.23;;;4.63;;
45522;SDS011;31254;51.680;5.394;2023-03-12T16:51:41;37.38;;;5.50;;
45522;SDS011;31254;51.680;5.394;2023-03-12T16:54:08;26.20;;;4.00;;
45522;SDS011;31254;51.680;5.394;2023-03-12T16:56:40;30.77;;;5.18;;
45522;SDS011;31254;51.680;5.394;2023-03-12T16:59:22;28.48;;;4.05;;
45522;SDS011;31254;51.680;5.394;2023-03-12T17:01:49;26.70;;;3.53;;
45522;SDS011;31254;51.680;5.394;2023-03-12T17:04:22;21.48;;;4.50;;
45522;SDS011;31254;51.680;5.394;2023-03-12T17:06:49;22.67;;;4.40;;